createdAt,value
2022-09-11T00:00:40.520Z,16.93
2022-09-11T00:03:06.960Z,16.33
2022-09-11T00:05:37.339Z,15.83
2022-09-11T00:08:03.760Z,14.37
2022-09-11T00:10:30.166Z,15.33
2022-09-11T00:12:56.685Z,15.00
2022-09-11T00:15:23.094Z,14.70
2022-09-11T00:17:49.478Z,14.73
2022-09-11T00:20:16.024Z,13.77
2022-09-11T00:22:42.379Z,14.23
2022-09-11T00:25:09.072Z,14.07
2022-09-11T00:27:35.504Z,14.10
2022-09-11T00:30:01.954Z,13.10
2022-09-11T00:32:28.310Z,13.47
2022-09-11T00:34:54.732Z,12.70
2022-09-11T00:37:21.116Z,13.43
2022-09-11T00:39:47.882Z,12.23
2022-09-11T00:42:14.327Z,13.43
2022-09-11T00:44:40.828Z,12.83
2022-09-11T00:47:09.090Z,13.10
2022-09-11T00:49:48.676Z,12.93
2022-09-11T00:52:20.859Z,13.47
2022-09-11T00:54:51.817Z,12.83
2022-09-11T00:57:22.868Z,12.87
2022-09-11T00:59:51.477Z,12.67
2022-09-11T01:02:23.258Z,12.50
2022-09-11T01:04:54.573Z,12.77
2022-09-11T01:07:22.974Z,12.43
2022-09-11T01:09:50.324Z,12.83
2022-09-11T01:12:26.135Z,13.03
2022-09-11T01:15:00.328Z,12.87
2022-09-11T01:17:49.520Z,12.10
2022-09-11T01:20:33.445Z,13.10
2022-09-11T01:23:33.682Z,11.83
2022-09-11T01:26:33.452Z,12.03
2022-09-11T01:29:06.489Z,11.87
2022-09-11T01:31:44.443Z,11.77
2022-09-11T01:34:20.865Z,11.67
2022-09-11T01:36:55.908Z,11.73
2022-09-11T01:39:26.012Z,12.27
2022-09-11T01:41:59.247Z,11.03
2022-09-11T01:44:50.733Z,11.90
2022-09-11T01:47:19.836Z,11.47
2022-09-11T01:49:55.684Z,10.83
2022-09-11T01:52:27.043Z,11.67
2022-09-11T01:54:57.732Z,12.20
2022-09-11T01:57:42.117Z,11.20
2022-09-11T02:00:11.226Z,12.50
2022-09-11T02:02:42.460Z,12.10
2022-09-11T02:05:43.697Z,11.60
2022-09-11T02:08:36.860Z,11.97
2022-09-11T02:11:08.032Z,11.93
2022-09-11T02:13:59.528Z,11.83
2022-09-11T02:16:42.236Z,11.47
2022-09-11T02:19:12.394Z,12.90
2022-09-11T02:21:39.315Z,12.20
2022-09-11T02:24:06.182Z,12.27
2022-09-11T02:26:37.130Z,12.23
2022-09-11T02:29:03.617Z,12.20
2022-09-11T02:31:30.311Z,12.07
2022-09-11T02:33:56.719Z,10.97
2022-09-11T02:36:26.113Z,10.53
2022-09-11T02:38:52.452Z,11.40
2022-09-11T02:41:27.258Z,11.27
2022-09-11T02:44:11.956Z,12.40
2022-09-11T02:47:03.132Z,11.60
2022-09-11T02:49:54.240Z,11.80
2022-09-11T02:52:26.318Z,10.40
2022-09-11T02:54:52.674Z,11.23
2022-09-11T02:57:34.222Z,11.23
2022-09-11T03:00:03.718Z,11.30
2022-09-11T03:02:32.756Z,12.03
2022-09-11T03:04:59.178Z,10.53
2022-09-11T03:07:26.018Z,11.27
2022-09-11T03:09:52.907Z,11.50
2022-09-11T03:12:19.356Z,11.20
2022-09-11T03:14:45.759Z,11.50
2022-09-11T03:17:12.159Z,10.90
2022-09-11T03:19:38.623Z,10.87
2022-09-11T03:22:05.084Z,10.10
2022-09-11T03:24:31.443Z,11.17
2022-09-11T03:26:57.812Z,11.70
2022-09-11T03:29:24.214Z,11.97
2022-09-11T03:31:50.611Z,12.10
2022-09-11T03:34:17.076Z,11.27
2022-09-11T03:36:44.047Z,10.50
2022-09-11T03:39:10.598Z,10.03
2022-09-11T03:41:36.972Z,9.20
2022-09-11T03:44:03.481Z,9.33
2022-09-11T03:46:29.894Z,8.80
2022-09-11T03:48:56.407Z,8.00
2022-09-11T03:51:22.794Z,7.87
2022-09-11T03:53:49.285Z,7.60
2022-09-11T03:56:15.853Z,9.93
2022-09-11T03:58:42.288Z,10.53
2022-09-11T04:01:14.374Z,9.60
2022-09-11T04:03:41.916Z,10.67
2022-09-11T04:06:08.607Z,9.93
2022-09-11T04:08:35.085Z,10.30
2022-09-11T04:11:04.273Z,9.83
2022-09-11T04:13:33.270Z,9.47
2022-09-11T04:16:05.976Z,9.30
2022-09-11T04:18:35.163Z,10.07
2022-09-11T04:21:05.984Z,8.90
2022-09-11T04:23:32.734Z,9.53
2022-09-11T04:25:59.117Z,9.47
2022-09-11T04:28:27.308Z,9.27
2022-09-11T04:30:53.684Z,9.77
2022-09-11T04:33:20.023Z,9.33
2022-09-11T04:35:46.445Z,10.07
2022-09-11T04:38:12.779Z,9.37
2022-09-11T04:40:39.115Z,9.03
2022-09-11T04:43:05.559Z,9.67
2022-09-11T04:45:32.007Z,10.90
2022-09-11T04:47:58.842Z,10.20
2022-09-11T04:50:25.267Z,9.33
2022-09-11T04:52:51.605Z,9.83
2022-09-11T04:55:18.002Z,10.87
2022-09-11T04:57:44.446Z,12.17
2022-09-11T05:00:11.402Z,11.87
2022-09-11T05:02:37.765Z,11.77
2022-09-11T05:05:04.590Z,10.90
2022-09-11T05:07:30.980Z,11.77
2022-09-11T05:09:57.463Z,11.40
2022-09-11T05:12:23.823Z,11.37
2022-09-11T05:14:50.216Z,11.83
2022-09-11T05:17:16.572Z,11.13
2022-09-11T05:19:43.000Z,10.07
2022-09-11T05:22:09.343Z,10.90
2022-09-11T05:24:35.751Z,9.07
2022-09-11T05:27:02.147Z,9.80
2022-09-11T05:29:32.257Z,9.73
2022-09-11T05:31:59.184Z,9.70
2022-09-11T05:34:26.597Z,8.70
2022-09-11T05:36:52.962Z,8.80
2022-09-11T05:39:19.340Z,8.63
2022-09-11T05:41:45.693Z,9.30
2022-09-11T05:44:12.034Z,8.87
2022-09-11T05:46:38.369Z,8.73
2022-09-11T05:49:04.729Z,8.90
2022-09-11T05:51:31.085Z,8.50
2022-09-11T05:53:57.490Z,9.30
2022-09-11T05:56:25.345Z,8.83
2022-09-11T05:58:52.000Z,10.13
2022-09-11T06:01:20.685Z,9.93
2022-09-11T06:03:47.144Z,9.93
2022-09-11T06:06:13.565Z,9.00
2022-09-11T06:08:41.289Z,9.50
2022-09-11T06:11:07.814Z,10.47
2022-09-11T06:13:40.191Z,10.03
2022-09-11T06:16:18.415Z,8.93
2022-09-11T06:18:46.571Z,6.47
2022-09-11T06:21:13.371Z,6.10
2022-09-11T06:23:39.987Z,4.97
2022-09-11T06:26:17.264Z,4.90
2022-09-11T06:28:43.692Z,4.33
2022-09-11T06:31:12.802Z,5.03
2022-09-11T06:33:41.230Z,4.83
2022-09-11T06:36:11.223Z,6.13
2022-09-11T06:38:37.751Z,5.90
2022-09-11T06:41:06.671Z,6.07
2022-09-11T06:43:33.363Z,5.90
2022-09-11T06:46:07.734Z,6.70
2022-09-11T06:48:34.201Z,7.53
2022-09-11T06:51:04.533Z,6.60
2022-09-11T06:53:30.937Z,6.60
2022-09-11T06:56:02.139Z,6.67
2022-09-11T06:58:29.046Z,6.50
2022-09-11T07:01:06.077Z,6.20
2022-09-11T07:03:33.074Z,6.38
2022-09-11T07:06:00.558Z,6.43
2022-09-11T07:08:27.481Z,6.70
2022-09-11T07:10:54.325Z,6.78
2022-09-11T07:13:21.211Z,5.95
2022-09-11T07:15:47.594Z,6.53
2022-09-11T07:18:13.941Z,7.38
2022-09-11T07:20:41.144Z,7.25
2022-09-11T07:23:08.438Z,7.30
2022-09-11T07:25:37.007Z,7.63
2022-09-11T07:28:03.586Z,7.10
2022-09-11T07:30:30.044Z,6.68
2022-09-11T07:32:56.503Z,6.57
2022-09-11T07:35:22.971Z,6.72
2022-09-11T07:37:50.964Z,6.40
2022-09-11T07:40:17.667Z,5.78
2022-09-11T07:42:44.305Z,7.40
2022-09-11T07:45:13.422Z,6.78
2022-09-11T07:47:50.259Z,6.95
2022-09-11T07:50:18.020Z,6.45
2022-09-11T07:52:44.429Z,7.25
2022-09-11T07:55:10.954Z,6.93
2022-09-11T07:57:37.421Z,6.57
2022-09-11T08:00:04.366Z,6.50
2022-09-11T08:02:30.770Z,5.75
2022-09-11T08:04:57.249Z,6.40
2022-09-11T08:07:23.645Z,5.50
2022-09-11T08:10:04.357Z,5.43
2022-09-11T08:12:36.553Z,4.80
2022-09-11T08:15:02.992Z,4.47
2022-09-11T08:17:29.342Z,4.23
2022-09-11T08:19:55.812Z,4.17
2022-09-11T08:22:22.280Z,3.70
2022-09-11T08:24:48.629Z,3.73
2022-09-11T08:27:15.087Z,4.50
2022-09-11T08:29:41.413Z,4.20
2022-09-11T08:32:07.769Z,4.40
2022-09-11T08:34:34.411Z,4.67
2022-09-11T08:37:00.816Z,4.50
2022-09-11T08:39:27.211Z,4.30
2022-09-11T08:42:02.053Z,4.20
2022-09-11T08:44:39.203Z,3.57
2022-09-11T08:47:10.213Z,3.73
2022-09-11T08:49:41.411Z,3.83
2022-09-11T08:52:14.137Z,3.37
2022-09-11T08:54:42.157Z,2.47
2022-09-11T08:57:20.382Z,2.60
2022-09-11T09:00:15.375Z,2.55
2022-09-11T09:03:09.898Z,2.30
2022-09-11T09:05:56.727Z,1.88
2022-09-11T09:08:41.821Z,2.22
2022-09-11T09:11:46.768Z,2.30
2022-09-11T09:14:38.272Z,2.17
2022-09-11T09:17:07.474Z,2.53
2022-09-11T09:19:52.249Z,2.00
2022-09-11T09:22:28.213Z,2.25
2022-09-11T09:24:59.050Z,2.25
2022-09-11T09:27:33.619Z,1.98
2022-09-11T09:30:04.164Z,2.67
2022-09-11T09:32:34.973Z,2.05
2022-09-11T09:35:11.469Z,2.10
2022-09-11T09:37:38.938Z,2.35
2022-09-11T09:40:08.966Z,2.08
2022-09-11T09:42:57.631Z,2.47
2022-09-11T09:45:52.409Z,2.67
2022-09-11T09:48:18.938Z,2.40
2022-09-11T09:50:45.575Z,2.35
2022-09-11T09:53:21.410Z,2.50
2022-09-11T09:55:48.970Z,2.70
2022-09-11T09:58:15.368Z,2.42
2022-09-11T10:00:42.117Z,1.93
2022-09-11T10:03:20.161Z,2.20
2022-09-11T10:05:48.717Z,2.47
2022-09-11T10:08:24.166Z,2.30
2022-09-11T10:11:01.400Z,2.23
2022-09-11T10:13:31.297Z,2.30
2022-09-11T10:16:03.827Z,2.80
2022-09-11T10:18:30.212Z,2.00
2022-09-11T10:21:11.782Z,1.87
2022-09-11T10:23:54.687Z,2.07
2022-09-11T10:26:42.719Z,1.87
2022-09-11T10:29:11.828Z,1.87
2022-09-11T10:31:49.632Z,1.90
2022-09-11T10:34:18.900Z,2.30
2022-09-11T10:37:11.625Z,2.08
2022-09-11T10:39:38.478Z,1.77
2022-09-11T10:42:16.635Z,1.90
2022-09-11T10:44:45.534Z,1.75
2022-09-11T10:47:21.124Z,2.13
2022-09-11T10:49:48.240Z,2.30
2022-09-11T10:52:14.647Z,2.55
2022-09-11T10:54:47.163Z,2.00
2022-09-11T10:57:13.535Z,2.47
2022-09-11T10:59:59.746Z,2.60
2022-09-11T11:02:31.168Z,2.17
2022-09-11T11:05:03.377Z,2.15
2022-09-11T11:07:38.734Z,2.30
2022-09-11T11:10:36.213Z,1.77
2022-09-11T11:13:30.501Z,2.35
2022-09-11T11:16:21.824Z,2.38
2022-09-11T11:18:56.603Z,2.20
2022-09-11T11:21:32.308Z,2.15
2022-09-11T11:24:37.207Z,2.00
2022-09-11T11:27:37.246Z,1.90
2022-09-11T11:30:11.188Z,1.73
2022-09-11T11:33:10.133Z,1.80
2022-09-11T11:35:45.826Z,2.00
2022-09-11T11:38:22.080Z,2.15
2022-09-11T11:40:54.456Z,1.90
2022-09-11T11:43:27.466Z,2.00
2022-09-11T11:45:53.859Z,2.00
2022-09-11T11:48:46.852Z,1.80
2022-09-11T11:51:19.158Z,1.80
2022-09-11T11:53:59.506Z,1.70
2022-09-11T11:56:31.837Z,1.80
2022-09-11T11:58:58.236Z,1.90
2022-09-11T12:01:32.603Z,2.10
2022-09-11T12:04:16.007Z,1.90
2022-09-11T12:06:42.522Z,1.80
2022-09-11T12:09:09.413Z,1.93
2022-09-11T12:11:36.151Z,1.90
2022-09-11T12:14:02.929Z,2.37
2022-09-11T12:16:33.868Z,1.83
2022-09-11T12:19:04.957Z,1.90
2022-09-11T12:21:31.306Z,2.03
2022-09-11T12:23:57.627Z,2.13
2022-09-11T12:26:25.396Z,2.10
2022-09-11T12:29:10.538Z,2.07
2022-09-11T12:32:18.715Z,1.80
2022-09-11T12:34:45.086Z,2.50
2022-09-11T12:37:19.623Z,2.33
2022-09-11T12:40:01.888Z,2.60
2022-09-11T12:42:31.349Z,2.43
2022-09-11T12:44:58.564Z,2.17
2022-09-11T12:47:37.333Z,2.30
2022-09-11T12:50:15.037Z,2.30
2022-09-11T12:52:50.460Z,2.30
2022-09-11T12:55:31.365Z,2.17
2022-09-11T12:58:02.540Z,2.40
2022-09-11T13:00:41.840Z,2.67
2022-09-11T13:03:19.344Z,2.20
2022-09-11T13:05:55.349Z,2.23
2022-09-11T13:08:26.221Z,2.73
2022-09-11T13:10:52.670Z,2.50
2022-09-11T13:13:34.496Z,2.50
2022-09-11T13:16:19.488Z,2.30
2022-09-11T13:18:46.228Z,2.43
2022-09-11T13:21:15.667Z,2.50
2022-09-11T13:23:42.174Z,2.10
2022-09-11T13:26:15.347Z,2.30
2022-09-11T13:28:49.218Z,2.30
2022-09-11T13:31:24.964Z,2.20
2022-09-11T13:33:52.532Z,2.30
2022-09-11T13:36:24.688Z,1.97
2022-09-11T13:38:57.994Z,2.20
2022-09-11T13:41:29.023Z,2.30
2022-09-11T13:43:58.628Z,2.20
2022-09-11T13:46:26.073Z,2.20
2022-09-11T13:49:19.820Z,2.43
2022-09-11T13:51:47.808Z,2.40
2022-09-11T13:54:18.250Z,2.30
2022-09-11T13:56:46.115Z,2.03
2022-09-11T13:59:43.484Z,2.27
2022-09-11T14:02:27.328Z,2.27
2022-09-11T14:05:02.043Z,2.17
2022-09-11T14:07:28.668Z,2.20
2022-09-11T14:10:07.727Z,2.00
2022-09-11T14:12:46.549Z,2.50
2022-09-11T14:15:21.809Z,1.97
2022-09-11T14:17:48.575Z,2.10
2022-09-11T14:20:18.981Z,2.03
2022-09-11T14:22:46.183Z,2.40
2022-09-11T14:25:21.287Z,2.70
2022-09-11T14:27:48.175Z,2.53
2022-09-11T14:30:25.331Z,2.20
2022-09-11T14:33:13.178Z,2.47
2022-09-11T14:35:39.919Z,2.50
2022-09-11T14:38:06.510Z,2.70
2022-09-11T14:40:32.861Z,2.13
2022-09-11T14:42:59.339Z,2.50
2022-09-11T14:45:25.702Z,2.00
2022-09-11T14:47:52.867Z,2.23
2022-09-11T14:50:19.302Z,2.20
2022-09-11T14:52:45.763Z,2.40
2022-09-11T14:55:19.714Z,2.20
2022-09-11T14:57:46.512Z,2.07
2022-09-11T15:00:18.563Z,2.20
2022-09-11T15:02:45.354Z,2.43
2022-09-11T15:05:16.302Z,2.30
2022-09-11T15:07:43.243Z,2.33
2022-09-11T15:10:10.860Z,2.30
2022-09-11T15:12:37.250Z,2.73
2022-09-11T15:15:04.699Z,2.30
2022-09-11T15:17:31.415Z,2.40
2022-09-11T15:19:58.416Z,2.07
2022-09-11T15:22:25.225Z,2.00
2022-09-11T15:24:51.709Z,2.10
2022-09-11T15:27:18.262Z,2.20
2022-09-11T15:29:45.341Z,2.47
2022-09-11T15:32:12.309Z,2.30
2022-09-11T15:34:38.842Z,2.47
2022-09-11T15:37:06.232Z,2.30
2022-09-11T15:39:32.866Z,2.40
2022-09-11T15:41:59.462Z,2.30
2022-09-11T15:44:27.429Z,2.70
2022-09-11T15:46:55.105Z,2.37
2022-09-11T15:49:22.560Z,2.20
2022-09-11T15:51:50.155Z,2.10
2022-09-11T15:54:17.364Z,2.10
2022-09-11T15:56:44.113Z,2.70
2022-09-11T15:59:12.035Z,2.30
2022-09-11T16:01:38.860Z,2.27
2022-09-11T16:04:11.425Z,2.90
2022-09-11T16:06:40.785Z,2.37
2022-09-11T16:09:12.565Z,2.60
2022-09-11T16:11:39.837Z,2.40
2022-09-11T16:14:07.274Z,2.40
2022-09-11T16:16:34.227Z,2.33
2022-09-11T16:19:00.892Z,2.47
2022-09-11T16:21:28.318Z,2.60
2022-09-11T16:24:00.739Z,2.53
2022-09-11T16:26:28.006Z,2.53
2022-09-11T16:28:54.659Z,2.27
2022-09-11T16:31:21.073Z,2.40
2022-09-11T16:33:51.809Z,2.60
2022-09-11T16:36:20.885Z,1.90
2022-09-11T16:38:49.842Z,2.60
2022-09-11T16:41:21.859Z,2.10
2022-09-11T16:43:52.133Z,2.30
2022-09-11T16:46:24.559Z,2.50
2022-09-11T16:48:54.472Z,2.17
2022-09-11T16:51:22.503Z,2.47
2022-09-11T16:53:49.728Z,2.70
2022-09-11T16:56:19.437Z,2.23
2022-09-11T16:58:46.191Z,2.37
2022-09-11T17:01:15.333Z,2.50
2022-09-11T17:03:43.498Z,2.40
2022-09-11T17:06:10.423Z,2.70
2022-09-11T17:08:37.654Z,2.20
2022-09-11T17:11:04.127Z,2.20
2022-09-11T17:13:30.474Z,2.70
2022-09-11T17:16:16.210Z,2.57
2022-09-11T17:18:52.089Z,2.43
2022-09-11T17:21:18.498Z,2.60
2022-09-11T17:23:45.064Z,2.33
2022-09-11T17:26:13.357Z,2.80
2022-09-11T17:28:40.295Z,2.30
2022-09-11T17:31:08.989Z,2.20
2022-09-11T17:33:38.190Z,2.50
2022-09-11T17:36:06.358Z,2.40
2022-09-11T17:38:35.271Z,2.30
2022-09-11T17:41:04.804Z,2.43
2022-09-11T17:43:32.117Z,2.90
2022-09-11T17:46:10.491Z,2.70
2022-09-11T17:48:38.511Z,2.27
2022-09-11T17:51:25.215Z,2.60
2022-09-11T17:53:54.882Z,2.67
2022-09-11T17:56:23.902Z,2.30
2022-09-11T17:58:56.545Z,2.63
2022-09-11T18:01:24.603Z,2.40
2022-09-11T18:03:56.669Z,3.00
2022-09-11T18:06:27.740Z,2.57
2022-09-11T18:08:57.275Z,3.23
2022-09-11T18:11:24.150Z,3.20
2022-09-11T18:13:50.568Z,3.30
2022-09-11T18:16:17.109Z,3.40
2022-09-11T18:18:43.575Z,3.20
2022-09-11T18:21:11.509Z,4.50
2022-09-11T18:23:42.417Z,3.43
2022-09-11T18:26:13.961Z,3.60
2022-09-11T18:28:40.326Z,4.30
2022-09-11T18:31:07.012Z,4.50
2022-09-11T18:33:33.621Z,4.27
2022-09-11T18:36:05.475Z,4.07
2022-09-11T18:38:33.199Z,4.30
2022-09-11T18:41:00.235Z,3.97
2022-09-11T18:43:28.133Z,4.60
2022-09-11T18:45:55.147Z,4.20
2022-09-11T18:48:21.602Z,4.53
2022-09-11T18:50:48.058Z,4.73
2022-09-11T18:53:14.508Z,4.77
2022-09-11T18:55:40.901Z,4.13
2022-09-11T18:58:07.345Z,4.47
2022-09-11T19:00:33.915Z,5.00
2022-09-11T19:03:00.487Z,4.20
2022-09-11T19:05:26.850Z,4.17
2022-09-11T19:07:53.284Z,4.67
2022-09-11T19:10:19.638Z,4.83
2022-09-11T19:12:48.283Z,4.37
2022-09-11T19:15:14.702Z,4.13
2022-09-11T19:17:42.061Z,4.50
2022-09-11T19:20:09.408Z,5.00
2022-09-11T19:22:35.890Z,5.00
2022-09-11T19:25:02.306Z,4.83
2022-09-11T19:27:28.870Z,3.90
2022-09-11T19:29:55.215Z,4.67
2022-09-11T19:32:21.625Z,4.60
2022-09-11T19:34:48.061Z,4.80
2022-09-11T19:37:14.482Z,4.90
2022-09-11T19:39:40.946Z,5.10
2022-09-11T19:42:07.337Z,5.17
2022-09-11T19:44:33.747Z,4.70
2022-09-11T19:47:01.966Z,5.63
2022-09-11T19:49:28.840Z,7.95
2022-09-11T19:51:57.196Z,6.63
2022-09-11T19:54:24.235Z,6.43
2022-09-11T19:56:52.304Z,6.43
2022-09-11T19:59:18.822Z,5.87
2022-09-11T20:01:45.507Z,6.80
2022-09-11T20:04:12.105Z,6.53
2022-09-11T20:06:38.534Z,6.73
2022-09-11T20:11:52.390Z,6.80
2022-09-11T20:14:18.980Z,7.83
2022-09-11T20:16:45.614Z,8.70
2022-09-11T20:19:12.152Z,8.33
2022-09-11T20:21:38.572Z,8.10
2022-09-11T20:24:05.584Z,9.77
2022-09-11T20:26:32.185Z,9.77
2022-09-11T20:29:02.672Z,10.00
2022-09-11T20:31:31.570Z,8.93
2022-09-11T20:34:00.698Z,9.40
2022-09-11T20:36:27.866Z,9.97
2022-09-11T20:38:56.387Z,8.87
2022-09-11T20:41:23.067Z,9.03
2022-09-11T20:43:50.085Z,10.33
2022-09-11T20:46:16.548Z,11.60
2022-09-11T20:48:42.970Z,11.87
2022-09-11T20:51:12.152Z,10.33
2022-09-11T20:53:40.414Z,10.10
2022-09-11T20:56:09.339Z,10.40
2022-09-11T20:58:36.692Z,11.80
2022-09-11T21:01:04.027Z,10.57
2022-09-11T21:03:31.421Z,11.67
2022-09-11T21:06:04.808Z,10.97
2022-09-11T21:08:31.171Z,11.20
2022-09-11T21:11:01.922Z,11.67
2022-09-11T21:13:28.508Z,11.20
2022-09-11T21:15:54.945Z,11.83
2022-09-11T21:18:21.342Z,12.07
2022-09-11T21:20:55.444Z,12.43
2022-09-11T21:23:23.495Z,12.50
2022-09-11T21:25:52.688Z,12.77
2022-09-11T21:28:19.462Z,12.40
2022-09-11T21:30:45.826Z,12.27
2022-09-11T21:33:12.362Z,11.63
2022-09-11T21:35:38.760Z,11.60
2022-09-11T21:38:05.306Z,11.70
2022-09-11T21:40:31.744Z,10.50
2022-09-11T21:42:58.268Z,10.33
2022-09-11T21:45:24.826Z,11.37
2022-09-11T21:47:51.212Z,11.57
2022-09-11T21:50:19.332Z,11.80
2022-09-11T21:52:47.884Z,11.03
2022-09-11T21:55:15.486Z,10.80
2022-09-11T21:57:42.237Z,11.23
2022-09-11T22:00:11.954Z,12.03
2022-09-11T22:02:41.071Z,10.60
2022-09-11T22:05:07.772Z,11.23
2022-09-11T22:07:34.226Z,11.77
2022-09-11T22:10:00.572Z,11.67
2022-09-11T22:12:26.949Z,11.43
2022-09-11T22:14:53.406Z,10.83
2022-09-11T22:17:19.843Z,11.20
2022-09-11T22:19:46.244Z,12.10
2022-09-11T22:22:13.721Z,11.37
2022-09-11T22:24:45.908Z,10.83
2022-09-11T22:27:14.591Z,11.13
2022-09-11T22:29:43.986Z,11.73
2022-09-11T22:32:15.791Z,11.63
2022-09-11T22:34:42.240Z,11.00
2022-09-11T22:37:09.714Z,12.30
2022-09-11T22:39:36.341Z,12.60
2022-09-11T22:42:05.306Z,12.93
2022-09-11T22:44:33.016Z,14.07
2022-09-11T22:47:00.519Z,12.37
2022-09-11T22:49:29.698Z,12.30
2022-09-11T22:51:56.172Z,13.40
2022-09-11T22:54:23.872Z,13.40
2022-09-11T22:56:50.412Z,13.23
2022-09-11T22:59:16.933Z,13.87
2022-09-11T23:01:44.628Z,14.40
2022-09-11T23:04:11.257Z,12.93
2022-09-11T23:06:37.728Z,14.23
2022-09-11T23:09:05.486Z,13.97
2022-09-11T23:11:31.961Z,12.83
2022-09-11T23:13:58.368Z,12.77
2022-09-11T23:16:27.845Z,13.07
2022-09-11T23:19:02.927Z,12.57
2022-09-11T23:21:30.800Z,12.50
2022-09-11T23:23:58.364Z,13.13
2022-09-11T23:26:26.277Z,12.30
2022-09-11T23:28:53.098Z,12.87
2022-09-11T23:31:22.584Z,12.30
2022-09-11T23:33:48.987Z,13.83
2022-09-11T23:36:15.970Z,13.77
2022-09-11T23:38:47.111Z,13.93
2022-09-11T23:41:15.010Z,13.03
2022-09-11T23:43:41.916Z,13.37
2022-09-11T23:46:08.644Z,12.80
2022-09-11T23:48:35.990Z,13.70
2022-09-11T23:51:02.530Z,14.80
2022-09-11T23:53:29.807Z,13.17
2022-09-11T23:55:57.279Z,14.67
2022-09-11T23:58:24.556Z,13.57
